NOZ530 ENGM-ENZV
Flight info
| Callsign | NOZ530 |
|---|---|
| Flight time | N/A |
| Altitude | 30000 |
| Route | ATLAP DCT IPMOD DCT ROPNO |
| Aircraft | B738/M-SDE2E3FGHIRWXY/LB1 |
Departure
| Time | N/A |
|---|---|
| Airport | Oslo-Gardermoen International Airport (ENGM) |
Arrival
| Time | 2026-05-09 10:25 |
|---|---|
| Airport | Stavanger Airport, Sola (ENZV) |
| Time | Latitude | Longitude | Altitude | Speed | Heading |
|---|---|---|---|---|---|
| 2026-05-09 10:12 | 59.33611 | 6.86245 | 22295 ft | 356 kts | 240° |
| 2026-05-09 10:12 | 59.32379 | 6.82070 | 21776 ft | 352 kts | 238° |
| 2026-05-09 10:12 | 59.31081 | 6.78080 | 21167 ft | 351 kts | 236° |
| 2026-05-09 10:13 | 59.29739 | 6.74160 | 20597 ft | 348 kts | 236° |
| 2026-05-09 10:13 | 59.28393 | 6.70245 | 20045 ft | 346 kts | 236° |
| 2026-05-09 10:13 | 59.27078 | 6.66340 | 19473 ft | 344 kts | 237° |
| 2026-05-09 10:13 | 59.25809 | 6.62444 | 18984 ft | 340 kts | 237° |
| 2026-05-09 10:14 | 59.24559 | 6.58631 | 18370 ft | 340 kts | 237° |
| 2026-05-09 10:14 | 59.23272 | 6.54728 | 17690 ft | 341 kts | 237° |
| 2026-05-09 10:14 | 59.22000 | 6.50881 | 17261 ft | 334 kts | 237° |
| 2026-05-09 10:14 | 59.20740 | 6.47244 | 17028 ft | 323 kts | 236° |
| 2026-05-09 10:15 | 59.19478 | 6.43714 | 16827 ft | 311 kts | 235° |
| 2026-05-09 10:15 | 59.18296 | 6.40226 | 16595 ft | 302 kts | 237° |
| 2026-05-09 10:15 | 59.17153 | 6.36920 | 16409 ft | 292 kts | 236° |
| 2026-05-09 10:15 | 59.16036 | 6.33753 | 16216 ft | 282 kts | 235° |
| 2026-05-09 10:16 | 59.14937 | 6.30652 | 15984 ft | 274 kts | 235° |
| 2026-05-09 10:16 | 59.13882 | 6.27624 | 15651 ft | 271 kts | 237° |
| 2026-05-09 10:16 | 59.12810 | 6.24582 | 15199 ft | 272 kts | 230° |
| 2026-05-09 10:16 | 59.11466 | 6.21998 | 14667 ft | 276 kts | 218° |
| 2026-05-09 10:17 | 59.09804 | 6.20145 | 14093 ft | 281 kts | 204° |
| 2026-05-09 10:17 | 59.08025 | 6.18856 | 13929 ft | 272 kts | 203° |
| 2026-05-09 10:17 | 59.06274 | 6.17575 | 13573 ft | 270 kts | 204° |
| 2026-05-09 10:17 | 59.04529 | 6.16175 | 13116 ft | 268 kts | 205° |
| 2026-05-09 10:18 | 59.02875 | 6.14701 | 12507 ft | 267 kts | 207° |
| 2026-05-09 10:18 | 59.01202 | 6.13162 | 11933 ft | 265 kts | 206° |
| 2026-05-09 10:18 | 58.99538 | 6.11722 | 11354 ft | 263 kts | 206° |
| 2026-05-09 10:18 | 58.97901 | 6.10256 | 10767 ft | 258 kts | 207° |
| 2026-05-09 10:19 | 58.96277 | 6.08846 | 10153 ft | 257 kts | 205° |
| 2026-05-09 10:19 | 58.94652 | 6.07530 | 9497 ft | 257 kts | 204° |
| 2026-05-09 10:19 | 58.93028 | 6.06212 | 8869 ft | 254 kts | 204° |
| 2026-05-09 10:19 | 58.91423 | 6.04900 | 8455 ft | 244 kts | 204° |
| 2026-05-09 10:20 | 58.89988 | 6.03716 | 8151 ft | 233 kts | 205° |
| 2026-05-09 10:20 | 58.88579 | 6.02543 | 7969 ft | 224 kts | 205° |
| 2026-05-09 10:20 | 58.87168 | 6.01357 | 7783 ft | 215 kts | 205° |
| 2026-05-09 10:20 | 58.85803 | 6.00199 | 7445 ft | 215 kts | 205° |
| 2026-05-09 10:21 | 58.84476 | 5.98954 | 7020 ft | 220 kts | 212° |
| 2026-05-09 10:21 | 58.83382 | 5.96931 | 6567 ft | 226 kts | 240° |
| 2026-05-09 10:21 | 58.83074 | 5.93950 | 6100 ft | 232 kts | 274° |
| 2026-05-09 10:21 | 58.83465 | 5.90951 | 5654 ft | 232 kts | 285° |
| 2026-05-09 10:22 | 58.83954 | 5.88037 | 5232 ft | 229 kts | 284° |
| 2026-05-09 10:22 | 58.84420 | 5.85131 | 4779 ft | 227 kts | 284° |
| 2026-05-09 10:22 | 58.84861 | 5.82297 | 4042 ft | 227 kts | 285° |
| 2026-05-09 10:22 | 58.85225 | 5.79626 | 1795 ft | 216 kts | 285° |
| 2026-05-09 10:23 | 58.85624 | 5.77046 | 1278 ft | 194 kts | 287° |
| 2026-05-09 10:23 | 58.86011 | 5.74701 | 1168 ft | 169 kts | 286° |
| 2026-05-09 10:23 | 58.86340 | 5.72612 | 1103 ft | 161 kts | 285° |
| 2026-05-09 10:23 | 58.86644 | 5.70615 | 864 ft | 154 kts | 285° |
| 2026-05-09 10:24 | 58.86938 | 5.68698 | 594 ft | 150 kts | 285° |
| 2026-05-09 10:24 | 58.87228 | 5.66790 | 317 ft | 144 kts | 285° |
| 2026-05-09 10:24 | 58.87502 | 5.64980 | 114 ft | 140 kts | 284° |
| 2026-05-09 10:24 | 58.87747 | 5.63306 | 29 ft | 101 kts | 291° |
| 2026-05-09 10:25 | 58.87859 | 5.62587 | 24 ft | 16 kts | 287° |
| 2026-05-09 10:25 | 58.87906 | 5.62504 | 24 ft | 6 kts | 345° |
| 2026-05-09 10:25 | 58.87949 | 5.62514 | 24 ft | 6 kts | 21° |
| 2026-05-09 10:25 | 58.88000 | 5.62549 | 24 ft | 8 kts | 33° |
| 2026-05-09 10:26 | 58.88012 | 5.62661 | 24 ft | 10 kts | 103° |